createdAt,value
2023-04-01T00:00:03.399Z,87.9
2023-04-01T00:01:04.290Z,87.71
2023-04-01T00:02:04.786Z,87.61
2023-04-01T00:03:05.703Z,87.13
2023-04-01T00:04:06.100Z,86.57
2023-04-01T00:05:07.108Z,86.57
2023-04-01T00:06:08.001Z,86.57
2023-04-01T00:07:08.500Z,85.71
2023-04-01T00:08:09.421Z,84.38
2023-04-01T00:09:11.073Z,84.47
2023-04-01T00:10:10.761Z,84.7
2023-04-01T00:11:11.705Z,84.23
2023-04-01T00:12:12.572Z,84.42
2023-04-01T00:13:13.015Z,84.13
2023-04-01T00:14:13.903Z,83.75
2023-04-01T00:15:14.401Z,83.56
2023-04-01T00:16:27.036Z,82.32
2023-04-01T00:17:16.102Z,82.14
2023-04-01T00:18:16.763Z,82.04
2023-04-01T00:19:17.178Z,82.04
2023-04-01T00:20:18.122Z,81.95
2023-04-01T00:21:18.834Z,82.32
2023-04-01T00:22:19.401Z,82.04
2023-04-01T00:23:19.720Z,82.04
2023-04-01T00:24:20.478Z,82.04
2023-04-01T00:25:20.990Z,81.56
2023-04-01T00:26:21.151Z,80.9
2023-04-01T00:27:21.872Z,79.75
2023-04-01T00:28:22.366Z,78.71
2023-04-01T00:29:23.085Z,79.28
2023-04-01T00:30:23.085Z,79.85
2023-04-01T00:31:23.841Z,79.94
2023-04-01T00:32:24.322Z,79.66
2023-04-01T00:33:24.743Z,79.09
2023-04-01T00:34:25.419Z,79.38
2023-04-01T00:35:26.136Z,79.66
2023-04-01T00:36:26.716Z,79.38
2023-04-01T00:37:27.397Z,79.38
2023-04-01T00:38:28.185Z,79.66
2023-04-01T00:39:29.037Z,79.94
2023-04-01T00:40:29.520Z,79.57
2023-04-01T00:41:29.818Z,80.52
2023-04-01T00:42:30.705Z,81.18
2023-04-01T00:43:31.301Z,81.56
2023-04-01T00:44:32.239Z,81.95
2023-04-01T00:45:32.994Z,81.09
2023-04-01T00:46:33.358Z,80.9
2023-04-01T00:47:33.972Z,80.71
2023-04-01T00:48:34.428Z,81.09
2023-04-01T00:49:35.059Z,80.9
2023-04-01T00:50:35.580Z,80.99
2023-04-01T00:51:35.878Z,81.37
2023-04-01T00:52:36.581Z,81.18
2023-04-01T00:53:37.290Z,81.76
2023-04-01T00:54:38.238Z,81.76
2023-04-01T00:55:38.833Z,81.28
2023-04-01T00:56:38.758Z,81.66
2023-04-01T00:57:39.612Z,81.76
2023-04-01T00:58:40.315Z,81.09
2023-04-01T00:59:40.698Z,80.9
2023-04-01T01:00:41.851Z,81.66
2023-04-01T01:01:41.807Z,82.04
2023-04-01T01:02:43.274Z,81.95
2023-04-01T01:03:43.283Z,81.95
2023-04-01T01:04:43.561Z,82.14
2023-04-01T01:05:54.101Z,81.95
2023-04-01T01:06:44.809Z,80.99
2023-04-01T01:07:45.242Z,81.37
2023-04-01T01:08:45.788Z,80.99
2023-04-01T01:09:46.447Z,80.9
2023-04-01T01:10:46.956Z,80.8
2023-04-01T01:11:49.189Z,80.52
2023-04-01T01:12:48.092Z,80.9
2023-04-01T01:13:48.588Z,80.52
2023-04-01T01:14:49.074Z,80.13
2023-04-01T01:15:49.759Z,79.66
2023-04-01T01:16:50.189Z,80.71
2023-04-01T01:17:51.467Z,80.9
2023-04-01T01:18:52.473Z,80.61
2023-04-01T01:19:52.674Z,80.23
2023-04-01T01:20:53.702Z,79.57
2023-04-01T01:21:53.617Z,80.23
2023-04-01T01:22:54.526Z,79.94
2023-04-01T01:23:55.484Z,79.94
2023-04-01T01:24:55.629Z,80.04
2023-04-01T01:25:56.559Z,80.71
2023-04-01T01:26:57.452Z,80.9
2023-04-01T01:27:58.377Z,80.9
2023-04-01T01:28:59.065Z,81.09
2023-04-01T01:29:59.483Z,81.76
2023-04-01T01:31:00.130Z,81.56
2023-04-01T01:32:00.740Z,81.37
2023-04-01T01:33:01.659Z,82.14
2023-04-01T01:34:01.852Z,82.04
2023-04-01T01:35:02.612Z,82.04
2023-04-01T01:36:02.798Z,82.04
2023-04-01T01:37:02.861Z,82.51
2023-04-01T01:38:03.411Z,82.8
2023-04-01T01:39:03.948Z,82.7
2023-04-01T01:40:04.666Z,82.99
2023-04-01T01:41:05.196Z,83.65
2023-04-01T01:42:05.921Z,84.33
2023-04-01T01:43:06.459Z,84.04
2023-04-01T01:44:07.428Z,83.85
2023-04-01T01:45:08.235Z,84.33
2023-04-01T01:46:09.034Z,84.42
2023-04-01T01:47:09.726Z,84.89
2023-04-01T01:48:10.782Z,86.04
2023-04-01T01:49:10.822Z,86.13
2023-04-01T01:50:11.666Z,86.99
2023-04-01T01:51:12.615Z,87.37
2023-04-01T01:52:13.559Z,87.65
2023-04-01T01:53:14.295Z,87.75
2023-04-01T01:54:15.024Z,87.65
2023-04-01T01:55:15.214Z,87.99
2023-04-01T01:56:15.341Z,87.56
2023-04-01T01:57:15.993Z,88.04
2023-04-01T01:58:16.658Z,87.9
2023-04-01T01:59:17.570Z,87.71
2023-04-01T02:00:18.189Z,87.9
2023-04-01T02:01:18.383Z,87.8
2023-04-01T02:02:18.453Z,88.37
2023-04-01T02:03:19.207Z,87.52
2023-04-01T02:04:19.816Z,87.9
2023-04-01T02:05:20.943Z,87.8
2023-04-01T02:06:21.310Z,87.9
2023-04-01T02:07:21.834Z,87.42
2023-04-01T02:08:22.542Z,87.32
2023-04-01T02:09:23.283Z,87.71
2023-04-01T02:10:23.958Z,88.37
2023-04-01T02:11:24.647Z,88.56
2023-04-01T02:12:25.139Z,88.66
2023-04-01T02:13:25.829Z,89.32
2023-04-01T02:14:26.525Z,89.42
2023-04-01T02:15:27.264Z,89.32
2023-04-01T02:16:28.608Z,89.42
2023-04-01T02:17:28.425Z,89.7
2023-04-01T02:18:29.459Z,90.08
2023-04-01T02:19:29.771Z,90.08
2023-04-01T02:20:30.771Z,90.66
2023-04-01T02:21:31.712Z,90.56
2023-04-01T02:22:32.457Z,90.94
2023-04-01T02:23:32.559Z,90.75
2023-04-01T02:24:33.506Z,91.22
2023-04-01T02:25:34.640Z,91.8
2023-04-01T02:26:34.581Z,92.27
2023-04-01T02:27:34.973Z,92.65
2023-04-01T02:28:35.876Z,93.13
2023-04-01T02:29:36.787Z,93.6
2023-04-01T02:30:37.404Z,94.46
2023-04-01T02:31:38.229Z,95.32
2023-04-01T02:32:39.293Z,96.36
2023-04-01T02:33:40.150Z,96.69
2023-04-01T02:34:40.863Z,98.08
2023-04-01T02:35:40.767Z,98.5
2023-04-01T02:36:41.900Z,98.97
2023-04-01T02:37:45.431Z,99.55
2023-04-01T02:38:43.144Z,99.99
2023-04-01T02:39:43.839Z,99.99
2023-04-01T02:40:44.667Z,99.99
2023-04-01T02:41:44.945Z,99.99
2023-04-01T02:42:45.647Z,99.99
2023-04-01T02:43:46.531Z,99.99
2023-04-01T02:44:47.614Z,99.99
2023-04-01T02:45:48.338Z,99.99
2023-04-01T02:46:49.143Z,99.99
2023-04-01T02:47:49.381Z,99.99
2023-04-01T02:48:50.299Z,99.99
2023-04-01T02:49:51.050Z,99.99
2023-04-01T02:50:51.514Z,99.99
2023-04-01T02:51:52.243Z,99.99
2023-04-01T02:52:52.556Z,99.99
2023-04-01T02:53:53.325Z,99.99
2023-04-01T02:54:53.835Z,99.99
2023-04-01T02:55:54.564Z,99.99
2023-04-01T02:56:55.382Z,99.99
2023-04-01T02:57:55.259Z,99.99
2023-04-01T02:58:56.174Z,99.99
2023-04-01T02:59:56.508Z,99.99
2023-04-01T03:00:56.892Z,99.99
2023-04-01T03:01:57.418Z,99.99
2023-04-01T03:02:58.343Z,99.99
2023-04-01T03:03:58.455Z,99.99
2023-04-01T03:04:59.181Z,99.99
2023-04-01T03:06:00.054Z,99.99
2023-04-01T03:07:00.815Z,99.99
2023-04-01T03:08:01.704Z,99.99
2023-04-01T03:09:02.227Z,99.99
2023-04-01T03:10:02.947Z,99.99
2023-04-01T03:11:06.044Z,99.99
2023-04-01T03:12:04.736Z,99.99
2023-04-01T03:13:05.293Z,99.99
2023-04-01T03:14:06.382Z,99.99
2023-04-01T03:15:16.699Z,99.99
2023-04-01T03:16:07.616Z,99.99
2023-04-01T03:17:08.241Z,99.99
2023-04-01T03:18:08.079Z,99.99
2023-04-01T03:19:08.482Z,99.99
2023-04-01T03:20:09.612Z,99.99
2023-04-01T03:21:10.198Z,99.99
2023-04-01T03:22:10.704Z,99.99
2023-04-01T03:23:11.810Z,99.99
2023-04-01T03:24:12.308Z,99.99
2023-04-01T03:25:12.886Z,99.99
2023-04-01T03:26:13.614Z,99.99
2023-04-01T03:27:14.545Z,99.99
2023-04-01T03:28:15.057Z,99.99
2023-04-01T03:29:15.256Z,99.99
2023-04-01T03:30:15.909Z,99.99
2023-04-01T03:31:17.084Z,99.99
2023-04-01T03:32:16.972Z,99.99
2023-04-01T03:33:17.958Z,99.99
2023-04-01T03:34:18.856Z,99.99
2023-04-01T03:35:19.384Z,99.99
2023-04-01T03:36:19.771Z,99.99
2023-04-01T03:37:19.691Z,99.99
2023-04-01T03:38:20.782Z,99.99
2023-04-01T03:39:21.081Z,99.99
2023-04-01T03:40:21.402Z,99.99
2023-04-01T03:41:21.868Z,99.99
2023-04-01T03:42:22.347Z,99.99
2023-04-01T03:43:23.571Z,99.99
2023-04-01T03:44:24.284Z,99.99
2023-04-01T03:45:24.892Z,99.99
2023-04-01T03:46:25.066Z,99.99
2023-04-01T03:47:25.316Z,99.99
2023-04-01T03:48:26.324Z,99.99
2023-04-01T03:49:27.066Z,99.99
2023-04-01T03:50:27.605Z,99.99
2023-04-01T03:51:27.905Z,99.99
2023-04-01T03:52:28.422Z,99.99
2023-04-01T03:53:28.940Z,99.99
2023-04-01T03:54:29.612Z,99.99
2023-04-01T03:55:30.468Z,99.99
2023-04-01T03:56:30.684Z,99.99
2023-04-01T03:57:31.136Z,99.99
2023-04-01T03:58:32.059Z,99.99
2023-04-01T03:59:32.619Z,99.99
2023-04-01T04:00:33.120Z,99.99
2023-04-01T04:01:33.530Z,99.99
2023-04-01T04:02:34.415Z,99.99
2023-04-01T04:03:35.631Z,99.99
2023-04-01T04:04:36.120Z,99.99
2023-04-01T04:05:37.312Z,99.99
2023-04-01T04:06:37.593Z,99.99
2023-04-01T04:07:38.310Z,99.99
2023-04-01T04:08:38.815Z,99.99
2023-04-01T04:09:39.504Z,99.99
2023-04-01T04:10:39.632Z,99.99
2023-04-01T04:11:40.449Z,99.99
2023-04-01T04:12:40.969Z,99.99
2023-04-01T04:13:41.662Z,99.99
2023-04-01T04:14:42.605Z,99.99
2023-04-01T04:15:43.353Z,99.99
2023-04-01T04:16:44.170Z,99.99
2023-04-01T04:17:45.003Z,99.99
2023-04-01T04:18:45.566Z,99.99
2023-04-01T04:19:46.565Z,99.99
2023-04-01T04:20:47.284Z,99.99
2023-04-01T04:21:47.634Z,99.99
2023-04-01T04:22:48.460Z,98.79
2023-04-01T04:23:49.044Z,98.22
2023-04-01T04:24:49.523Z,97.88
2023-04-01T04:25:50.688Z,97.17
2023-04-01T04:26:51.434Z,96.03
2023-04-01T04:27:52.480Z,96.22
2023-04-01T04:28:53.201Z,95.84
2023-04-01T04:29:54.459Z,95.94
2023-04-01T04:30:55.171Z,96.12
2023-04-01T04:31:55.740Z,96.22
2023-04-01T04:32:56.830Z,95.08
2023-04-01T04:33:56.696Z,94.79
2023-04-01T04:34:57.091Z,91.85
2023-04-01T04:35:57.910Z,91.28
2023-04-01T04:36:57.715Z,91.08
2023-04-01T04:37:58.415Z,90.23
2023-04-01T04:38:58.550Z,90.52
2023-04-01T04:39:59.052Z,90.61
2023-04-01T04:41:00.201Z,90.04
2023-04-01T04:42:00.882Z,90.18
2023-04-01T04:43:01.587Z,90.18
2023-04-01T04:44:02.092Z,90.18
2023-04-01T04:45:02.791Z,90.08
2023-04-01T04:46:03.567Z,90.28
2023-04-01T04:47:04.554Z,90.56
2023-04-01T04:48:04.904Z,91.37
2023-04-01T04:49:05.737Z,90.99
2023-04-01T04:50:06.643Z,91.18
2023-04-01T04:51:07.576Z,90.99
2023-04-01T04:52:08.348Z,91.37
2023-04-01T04:53:09.270Z,91.08
2023-04-01T04:54:10.147Z,91.8
2023-04-01T04:55:10.636Z,90.94
2023-04-01T04:56:11.317Z,91.22
2023-04-01T04:57:11.539Z,91.13
2023-04-01T04:58:11.401Z,91.32
2023-04-01T04:59:12.341Z,91.13
2023-04-01T05:00:13.241Z,91.42
2023-04-01T05:01:14.286Z,91.32
2023-04-01T05:02:14.963Z,91.32
2023-04-01T05:03:15.214Z,91.08
2023-04-01T05:04:16.009Z,91.94
2023-04-01T05:05:16.822Z,92.36
2023-04-01T05:06:17.517Z,91.75
2023-04-01T05:07:18.127Z,92.22
2023-04-01T05:08:18.124Z,92.03
2023-04-01T05:09:18.641Z,91.94
2023-04-01T05:10:18.942Z,91.37
2023-04-01T05:11:20.262Z,91.75
2023-04-01T05:12:20.974Z,91.75
2023-04-01T05:13:21.927Z,91.75
2023-04-01T05:14:22.818Z,92.03
2023-04-01T05:15:23.514Z,92.13
2023-04-01T05:16:23.547Z,91.75
2023-04-01T05:17:24.648Z,90.89
2023-04-01T05:18:25.258Z,91.47
2023-04-01T05:19:26.165Z,91.75
2023-04-01T05:20:26.682Z,92.13
2023-04-01T05:21:27.624Z,92.32
2023-04-01T05:22:28.043Z,92.99
2023-04-01T05:23:29.075Z,94.03
2023-04-01T05:24:29.372Z,93.94
2023-04-01T05:25:30.203Z,92.8
2023-04-01T05:26:30.305Z,91.66
2023-04-01T05:27:30.234Z,91.85
2023-04-01T05:28:30.955Z,91.94
2023-04-01T05:29:31.857Z,91.56
2023-04-01T05:30:32.383Z,91.28
2023-04-01T05:31:33.164Z,90.61
2023-04-01T05:32:33.639Z,90.52
2023-04-01T05:33:34.380Z,90.33
2023-04-01T05:34:35.676Z,91.28
2023-04-01T05:35:36.799Z,91.28
2023-04-01T05:36:37.214Z,91.18
2023-04-01T05:37:37.796Z,91.37
2023-04-01T05:38:38.334Z,91.08
2023-04-01T05:39:39.035Z,91.28
2023-04-01T05:40:39.751Z,90.99
2023-04-01T05:41:40.760Z,90.14
2023-04-01T05:42:43.478Z,89.37
2023-04-01T05:43:42.359Z,88.52
2023-04-01T05:44:42.726Z,88.61
2023-04-01T05:45:43.232Z,88.61
2023-04-01T05:46:43.976Z,87.76
2023-04-01T05:47:43.730Z,87.09
2023-04-01T05:48:44.312Z,87.19
2023-04-01T05:49:45.076Z,86.94
2023-04-01T05:50:45.966Z,86.66
2023-04-01T05:51:46.302Z,85.9
2023-04-01T05:52:47.116Z,85.14
2023-04-01T05:53:47.875Z,85.04
2023-04-01T05:54:48.407Z,85.9
2023-04-01T05:55:48.896Z,86.28
2023-04-01T05:56:51.289Z,85.14
2023-04-01T05:57:50.212Z,85.42
2023-04-01T05:58:51.064Z,85.99
2023-04-01T05:59:51.962Z,85.8
2023-04-01T06:01:02.478Z,85.99
2023-04-01T06:01:53.681Z,85.8
2023-04-01T06:02:54.450Z,85.99
2023-04-01T06:03:54.610Z,85.8
2023-04-01T06:04:55.145Z,85.71
2023-04-01T06:05:55.886Z,85.71
2023-04-01T06:06:56.410Z,85.9
2023-04-01T06:07:57.252Z,84.47
2023-04-01T06:08:58.001Z,84.47
2023-04-01T06:09:58.530Z,84.56
2023-04-01T06:10:59.047Z,84.38
2023-04-01T06:11:59.591Z,83.14
2023-04-01T06:14:00.125Z,83.09
2023-04-01T06:15:00.411Z,82.9
2023-04-01T06:16:01.183Z,82.23
2023-04-01T06:17:01.999Z,82.23
2023-04-01T06:18:02.646Z,84.7
2023-04-01T06:19:02.747Z,85.37
2023-04-01T06:20:03.720Z,85.75
2023-04-01T06:21:04.069Z,86.13
2023-04-01T06:22:04.635Z,87.27
2023-04-01T06:23:04.884Z,87.56
2023-04-01T06:24:05.798Z,87.85
2023-04-01T06:25:06.553Z,87.85
2023-04-01T06:26:07.094Z,87.85
2023-04-01T06:27:07.832Z,87.75
2023-04-01T06:28:09.155Z,87.23
2023-04-01T06:29:09.058Z,86.65
2023-04-01T06:30:09.552Z,85.93
2023-04-01T06:31:10.643Z,84.41
2023-04-01T06:32:11.375Z,83.02
2023-04-01T06:33:11.623Z,83.4
2023-04-01T06:34:12.611Z,83.21
2023-04-01T06:35:12.582Z,83.5
2023-04-01T06:36:13.617Z,83.5
2023-04-01T06:37:14.538Z,82.49
2023-04-01T06:38:15.293Z,83.06
2023-04-01T06:39:16.849Z,83.31
2023-04-01T06:40:16.429Z,82.73
2023-04-01T06:41:16.688Z,83.25
2023-04-01T06:42:17.717Z,83.4
2023-04-01T06:43:18.761Z,83.88
2023-04-01T06:44:18.919Z,84.36
2023-04-01T06:45:19.911Z,83.88
2023-04-01T06:46:20.223Z,84.45
2023-04-01T06:47:20.854Z,85.12
2023-04-01T06:48:21.110Z,86.36
2023-04-01T06:49:21.809Z,86.32
2023-04-01T06:50:22.310Z,86.41
2023-04-01T06:51:22.820Z,85.93
2023-04-01T06:52:23.583Z,86.69
2023-04-01T06:53:24.578Z,86.79
2023-04-01T06:54:25.475Z,87.36
2023-04-01T06:55:28.178Z,87.93
2023-04-01T06:56:26.312Z,86.27
2023-04-01T06:57:27.115Z,86.18
2023-04-01T06:58:28.014Z,84.08
2023-04-01T06:59:28.508Z,83.51
2023-04-01T07:00:29.421Z,83.47
2023-04-01T07:01:30.001Z,83.94
2023-04-01T07:02:30.342Z,84.33
2023-04-01T07:03:31.087Z,83.37
2023-04-01T07:04:32.047Z,83.28
2023-04-01T07:05:32.444Z,83.09
2023-04-01T07:06:32.664Z,83.65
2023-04-01T07:07:33.613Z,83.65
2023-04-01T07:08:34.506Z,84.04
2023-04-01T07:09:35.265Z,83.22
2023-04-01T07:10:35.557Z,81.6
2023-04-01T07:11:36.284Z,79.46
2023-04-01T07:12:37.230Z,78.3
2023-04-01T07:13:37.358Z,75.81
2023-04-01T07:14:38.346Z,73.56
2023-04-01T07:15:39.314Z,70.54
2023-04-01T07:16:39.281Z,69.62
2023-04-01T07:17:40.197Z,69.43
2023-04-01T07:18:43.083Z,69.05
2023-04-01T07:19:41.235Z,69.91
2023-04-01T07:20:41.856Z,69.24
2023-04-01T07:21:42.611Z,68.41
2023-04-01T07:22:43.399Z,66.54
2023-04-01T07:23:44.045Z,66.35
2023-04-01T07:24:44.794Z,65.71
2023-04-01T07:25:45.638Z,64.37
2023-04-01T07:26:45.774Z,62.77
2023-04-01T07:27:46.674Z,62.55
2023-04-01T07:28:46.677Z,63.7
2023-04-01T07:29:47.161Z,63.89
2023-04-01T07:30:48.395Z,63.89
2023-04-01T07:31:49.294Z,64.09
2023-04-01T07:32:49.454Z,65.01
2023-04-01T07:34:49.794Z,64.43
2023-04-01T07:35:50.560Z,64.91
2023-04-01T07:36:51.134Z,64.62
2023-04-01T07:37:51.868Z,64.43
2023-04-01T07:38:52.218Z,64.82
2023-04-01T07:39:53.058Z,62.84
2023-04-01T07:40:53.817Z,63.13
2023-04-01T07:41:54.557Z,62.94
2023-04-01T07:42:55.503Z,62.4
2023-04-01T07:43:55.903Z,61.05
2023-04-01T07:44:56.232Z,61.05
2023-04-01T07:45:57.179Z,60.93
2023-04-01T07:46:58.082Z,59.88
2023-04-01T07:47:58.928Z,59.97
2023-04-01T07:48:59.539Z,61.28
2023-04-01T07:50:00.036Z,61.57
2023-04-01T07:51:00.556Z,61.51
2023-04-01T07:52:01.453Z,60.77
2023-04-01T07:53:02.420Z,61.05
2023-04-01T07:54:02.873Z,60.03
2023-04-01T07:55:03.633Z,59.36
2023-04-01T07:56:04.577Z,57.95
2023-04-01T07:57:04.720Z,58.22
2023-04-01T07:58:05.835Z,57.48
2023-04-01T07:59:06.847Z,56.61
2023-04-01T08:00:07.363Z,58.05
2023-04-01T08:01:08.060Z,59.48
2023-04-01T08:02:08.788Z,59.23
2023-04-01T08:03:09.563Z,57.89
2023-04-01T08:04:10.389Z,58.08
2023-04-01T08:05:10.749Z,58.01
2023-04-01T08:06:11.290Z,56.22
2023-04-01T08:07:11.818Z,55.19
2023-04-01T08:08:12.361Z,55
2023-04-01T08:09:13.300Z,55.29
2023-04-01T08:10:13.616Z,55.07
2023-04-01T08:11:14.359Z,55.26
2023-04-01T08:12:14.866Z,55.07
2023-04-01T08:13:15.830Z,55.04
2023-04-01T08:14:16.891Z,55.23
2023-04-01T08:15:17.445Z,54.68
2023-04-01T08:16:18.219Z,55.87
2023-04-01T08:17:19.430Z,55.97
2023-04-01T08:18:20.078Z,54.72
2023-04-01T08:19:21.034Z,55.13
2023-04-01T08:20:21.150Z,54.75
2023-04-01T08:21:22.097Z,54.21
2023-04-01T08:22:22.621Z,53.15
2023-04-01T08:23:23.669Z,54.53
2023-04-01T08:24:26.263Z,55.08
2023-04-01T08:25:24.234Z,54.44
2023-04-01T08:26:25.216Z,54.63
2023-04-01T08:27:25.529Z,55.87
2023-04-01T08:28:26.253Z,54.85
2023-04-01T08:29:26.825Z,53.7
2023-04-01T08:30:27.703Z,54.01
2023-04-01T08:31:28.296Z,54.49
2023-04-01T08:32:29.451Z,54.3
2023-04-01T08:33:29.628Z,53.91
2023-04-01T08:34:30.473Z,54.68
2023-04-01T08:35:32.403Z,54.94
2023-04-01T08:36:31.512Z,54.66
2023-04-01T08:37:32.131Z,54.08
2023-04-01T08:38:32.502Z,53.44
2023-04-01T08:39:33.275Z,53.03
2023-04-01T08:40:34.223Z,53.7
2023-04-01T08:41:34.743Z,52.64
2023-04-01T08:42:35.048Z,52.55
2023-04-01T08:43:35.973Z,52.83
2023-04-01T08:44:36.649Z,52.09
2023-04-01T08:45:37.887Z,51.32
2023-04-01T08:46:37.756Z,51.61
2023-04-01T08:47:38.819Z,52.45
2023-04-01T08:48:38.941Z,53.31
2023-04-01T08:49:39.844Z,52.71
2023-04-01T08:50:40.794Z,52.07
2023-04-01T08:51:41.522Z,52.26
2023-04-01T08:52:41.820Z,52.07
2023-04-01T08:53:42.748Z,52.07
2023-04-01T08:54:43.156Z,52.26
2023-04-01T08:55:44.104Z,51.49
2023-04-01T08:56:44.632Z,51.68
2023-04-01T08:57:45.524Z,51.46
2023-04-01T08:58:46.435Z,51.78
2023-04-01T08:59:47.390Z,53.03
2023-04-01T09:00:48.327Z,53.03
2023-04-01T09:01:48.385Z,52.91
2023-04-01T09:02:48.983Z,52.55
2023-04-01T09:03:50.127Z,51.4
2023-04-01T09:04:50.606Z,51.78
2023-04-01T09:05:51.013Z,51.49
2023-04-01T09:06:51.922Z,51.85
2023-04-01T09:07:52.636Z,51.56
2023-04-01T09:08:53.373Z,52.23
2023-04-01T09:09:54.129Z,52.91
2023-04-01T09:10:55.043Z,54.53
2023-04-01T09:11:57.151Z,54.6
2023-04-01T09:12:55.277Z,54.99
2023-04-01T09:13:56.062Z,54.77
2023-04-01T09:14:56.916Z,55.05
2023-04-01T09:15:57.749Z,55.12
2023-04-01T09:16:58.604Z,56.05
2023-04-01T09:17:59.712Z,55.76
2023-04-01T09:18:59.715Z,55.96
2023-04-01T09:19:59.869Z,56.82
2023-04-01T09:21:00.773Z,57.75
2023-04-01T09:22:01.103Z,58.22
2023-04-01T09:23:01.456Z,57.65
2023-04-01T09:24:02.174Z,57.36
2023-04-01T09:25:03.411Z,57.39
2023-04-01T09:26:04.197Z,56.72
2023-04-01T09:27:05.051Z,56.15
2023-04-01T09:28:05.747Z,56.05
2023-04-01T09:29:06.693Z,56.72
2023-04-01T09:30:07.576Z,57.39
2023-04-01T09:31:08.331Z,57.17
2023-04-01T09:32:08.220Z,56.98
2023-04-01T09:33:08.913Z,56.5
2023-04-01T09:34:09.685Z,57.65
2023-04-01T09:35:10.003Z,58.22
2023-04-01T09:36:10.819Z,57.53
2023-04-01T09:37:10.639Z,58.48
2023-04-01T09:38:11.149Z,58.29
2023-04-01T09:39:11.075Z,59.63
2023-04-01T09:40:11.773Z,58.48
2023-04-01T09:41:12.532Z,58.38
2023-04-01T09:42:13.034Z,58.29
2023-04-01T09:43:14.132Z,58.29
2023-04-01T09:44:14.857Z,58.95
2023-04-01T09:45:15.367Z,59.15
2023-04-01T09:46:16.187Z,59.53
2023-04-01T09:47:17.452Z,59.72
2023-04-01T09:48:17.218Z,59.34
2023-04-01T09:49:18.447Z,59.91
2023-04-01T09:50:19.052Z,60.68
2023-04-01T09:51:19.769Z,58.03
2023-04-01T09:52:20.257Z,57.62
2023-04-01T09:53:21.181Z,57.43
2023-04-01T09:54:21.138Z,57.43
2023-04-01T09:55:21.761Z,57.33
2023-04-01T09:56:22.287Z,57.36
2023-04-01T09:57:23.498Z,57.93
2023-04-01T09:58:23.984Z,59.47
2023-04-01T09:59:24.631Z,59.08
2023-04-01T10:00:25.619Z,59.37
2023-04-01T10:01:26.678Z,58.41
2023-04-01T10:02:26.731Z,57.55
2023-04-01T10:03:29.204Z,58.54
2023-04-01T10:04:27.681Z,58.06
2023-04-01T10:05:28.251Z,57.87
2023-04-01T10:06:28.232Z,56.91
2023-04-01T10:07:28.977Z,56.34
2023-04-01T10:08:29.699Z,56.24
2023-04-01T10:09:30.639Z,56.82
2023-04-01T10:10:31.371Z,57.39
2023-04-01T10:11:31.727Z,56.15
2023-04-01T10:12:32.664Z,56.05
2023-04-01T10:13:33.385Z,55.96
2023-04-01T10:14:33.925Z,56.43
2023-04-01T10:15:35.092Z,56.05
2023-04-01T10:16:35.228Z,56.53
2023-04-01T10:17:36.449Z,58.63
2023-04-01T10:18:37.038Z,58.32
2023-04-01T10:19:37.537Z,59.11
2023-04-01T10:20:37.637Z,58.63
2023-04-01T10:21:38.542Z,58.54
2023-04-01T10:22:39.282Z,57.87
2023-04-01T10:23:40.008Z,57.93
2023-04-01T10:24:40.128Z,58.7
2023-04-01T10:25:40.954Z,57.55
2023-04-01T10:26:40.895Z,56.69
2023-04-01T10:27:41.861Z,57.46
2023-04-01T10:28:42.767Z,57.75
2023-04-01T10:29:43.487Z,57.93
2023-04-01T10:30:44.249Z,58.22
2023-04-01T10:31:45.121Z,57.9
2023-04-01T10:32:45.169Z,58
2023-04-01T10:33:45.950Z,58.29
2023-04-01T10:34:47.137Z,60.01
2023-04-01T10:35:47.741Z,60.49
2023-04-01T10:36:48.594Z,61.35
2023-04-01T10:37:49.378Z,62.3
2023-04-01T10:38:50.324Z,62.97
2023-04-01T10:39:50.680Z,63.6
2023-04-01T10:40:51.350Z,63.7
2023-04-01T10:41:52.321Z,63.8
2023-04-01T10:42:52.879Z,63.99
2023-04-01T10:43:53.412Z,62.75
2023-04-01T10:44:53.782Z,61.6
2023-04-01T10:45:54.193Z,61.6
2023-04-01T10:46:54.212Z,62.27
2023-04-01T10:47:54.846Z,61.6
2023-04-01T10:48:55.909Z,61.79
2023-04-01T10:49:56.898Z,62.08
2023-04-01T10:50:57.419Z,62.46
2023-04-01T10:51:58.196Z,62.27
2023-04-01T10:52:58.717Z,62.46
2023-04-01T10:53:59.041Z,63.23
2023-04-01T10:54:59.973Z,63.89
2023-04-01T10:56:00.548Z,63.7
2023-04-01T10:57:01.365Z,63.89
2023-04-01T10:58:01.877Z,63.99
2023-04-01T10:59:02.797Z,64.28
2023-04-01T11:00:03.379Z,64.47
2023-04-01T11:01:03.684Z,64.37
2023-04-01T11:02:15.559Z,65.04
2023-04-01T11:03:04.690Z,65.52
2023-04-01T11:04:05.598Z,65.3
2023-04-01T11:05:06.105Z,65.48
2023-04-01T11:06:06.745Z,65.58
2023-04-01T11:07:07.848Z,65.58
2023-04-01T11:08:12.228Z,64.91
2023-04-01T11:09:09.338Z,64.43
2023-04-01T11:10:09.921Z,65.3
2023-04-01T11:11:10.073Z,65.87
2023-04-01T11:12:10.611Z,66.15
2023-04-01T11:13:11.546Z,65.96
2023-04-01T11:14:12.273Z,65.96
2023-04-01T11:15:13.211Z,66.53
2023-04-01T11:16:13.403Z,66.63
2023-04-01T11:17:13.623Z,66.76
2023-04-01T11:18:14.441Z,65.8
2023-04-01T11:19:15.280Z,65.39
2023-04-01T11:20:16.015Z,66.06
2023-04-01T11:21:16.907Z,66.53
2023-04-01T11:22:17.058Z,66.44
2023-04-01T11:23:17.541Z,66.53
2023-04-01T11:24:18.259Z,67.21
2023-04-01T11:25:18.901Z,67.01
2023-04-01T11:26:19.596Z,67.21
2023-04-01T11:27:20.225Z,66.82
2023-04-01T11:28:20.864Z,65.3
2023-04-01T11:29:21.349Z,65.01
2023-04-01T11:30:22.307Z,66.06
2023-04-01T11:31:22.907Z,66.82
2023-04-01T11:32:23.036Z,67.3
2023-04-01T11:33:26.205Z,66.92
2023-04-01T11:34:24.118Z,66.98
2023-04-01T11:35:24.808Z,67.17
2023-04-01T11:36:24.933Z,67.65
2023-04-01T11:37:25.518Z,67.36
2023-04-01T11:38:26.230Z,67.83
2023-04-01T11:39:27.172Z,68.12
2023-04-01T11:40:27.890Z,68.6
2023-04-01T11:41:28.810Z,68.6
2023-04-01T11:42:29.851Z,68.88
2023-04-01T11:43:38.523Z,68.7
2023-04-01T11:44:31.221Z,68.41
2023-04-01T11:45:32.254Z,68.12
2023-04-01T11:46:32.542Z,68.32
2023-04-01T11:47:33.082Z,68.7
2023-04-01T11:48:33.933Z,68.7
2023-04-01T11:49:34.614Z,69.56
2023-04-01T11:50:35.492Z,69.37
2023-04-01T11:51:35.586Z,68.32
2023-04-01T11:52:36.325Z,68.6
2023-04-01T11:53:36.847Z,69.17
2023-04-01T11:54:37.536Z,69.27
2023-04-01T11:55:38.447Z,70.19
2023-04-01T11:56:39.298Z,71.18
2023-04-01T11:57:40.676Z,71.52
2023-04-01T11:58:40.993Z,71.72
2023-04-01T11:59:41.683Z,70.47
2023-04-01T12:00:42.217Z,70.38
2023-04-01T12:01:42.955Z,69.71
2023-04-01T12:02:44.321Z,68.28
2023-04-01T12:03:44.762Z,68.51
2023-04-01T12:04:44.964Z,68.51
2023-04-01T12:05:45.203Z,68.79
2023-04-01T12:06:46.090Z,68.41
2023-04-01T12:07:46.480Z,68.79
2023-04-01T12:08:47.317Z,68.79
2023-04-01T12:09:48.008Z,68.41
2023-04-01T12:10:48.750Z,67.36
2023-04-01T12:11:49.250Z,68.03
2023-04-01T12:13:03.358Z,68.6
2023-04-01T12:13:50.942Z,69.37
2023-04-01T12:14:51.323Z,69.17
2023-04-01T12:15:51.845Z,68.98
2023-04-01T12:16:52.158Z,69.08
2023-04-01T12:17:52.320Z,69.56
2023-04-01T12:18:52.941Z,68.79
2023-04-01T12:19:53.139Z,68.51
2023-04-01T12:20:53.632Z,69.27
2023-04-01T12:21:54.533Z,70.47
2023-04-01T12:22:55.105Z,70.89
2023-04-01T12:23:55.578Z,69.52
2023-04-01T12:24:56.097Z,68.66
2023-04-01T12:25:57.086Z,68.85
2023-04-01T12:26:57.625Z,69.33
2023-04-01T12:27:58.752Z,69.43
2023-04-01T12:28:59.291Z,69.23
2023-04-01T12:29:59.802Z,69.52
2023-04-01T12:31:00.638Z,69.33
2023-04-01T12:32:01.380Z,69.33
2023-04-01T12:33:01.595Z,69.23
2023-04-01T12:34:02.381Z,69.62
2023-04-01T12:35:03.072Z,70.09
2023-04-01T12:36:03.426Z,69.71
2023-04-01T12:37:03.862Z,69.71
2023-04-01T12:38:04.582Z,69.52
2023-04-01T12:39:05.319Z,69.87
2023-04-01T12:40:05.814Z,70.06
2023-04-01T12:41:06.751Z,69.87
2023-04-01T12:42:07.873Z,70.63
2023-04-01T12:43:07.812Z,70.15
2023-04-01T12:44:08.328Z,71.14
2023-04-01T12:45:08.448Z,70.63
2023-04-01T12:46:09.570Z,71.3
2023-04-01T12:47:10.240Z,72.34
2023-04-01T12:48:11.277Z,72.34
2023-04-01T12:49:11.970Z,72.06
2023-04-01T12:50:12.677Z,72.72
2023-04-01T12:51:13.217Z,72.44
2023-04-01T12:52:14.113Z,73.62
2023-04-01T12:53:14.810Z,74.06
2023-04-01T12:54:15.108Z,73.3
2023-04-01T12:55:15.816Z,73.39
2023-04-01T12:56:16.540Z,73.62
2023-04-01T12:57:17.316Z,74.16
2023-04-01T12:58:17.575Z,75.11
2023-04-01T12:59:18.634Z,73.96
2023-04-01T13:00:19.335Z,73.11
2023-04-01T13:01:20.053Z,74.06
2023-04-01T13:02:20.129Z,73.96
2023-04-01T13:03:20.190Z,73.96
2023-04-01T13:04:21.114Z,74.06
2023-04-01T13:05:21.751Z,74.63